sensor_id;sensor_type;location;lat;lon;timestamp;P1;durP1;ratioP1;P2;durP2;ratioP2
37763;SDS011;23602;51.084;7.090;2023-02-01T00:02:16;27.95;;;11.60;;
37763;SDS011;23602;51.084;7.090;2023-02-01T00:04:42;26.50;;;10.80;;
37763;SDS011;23602;51.084;7.090;2023-02-01T00:07:07;31.23;;;11.55;;
37763;SDS011;23602;51.084;7.090;2023-02-01T00:09:33;25.33;;;11.23;;
37763;SDS011;23602;51.084;7.090;2023-02-01T00:11:59;22.88;;;9.20;;
37763;SDS011;23602;51.084;7.090;2023-02-01T00:14:27;28.27;;;12.15;;
37763;SDS011;23602;51.084;7.090;2023-02-01T00:16:52;29.23;;;10.88;;
37763;SDS011;23602;51.084;7.090;2023-02-01T00:19:18;23.67;;;9.20;;
37763;SDS011;23602;51.084;7.090;2023-02-01T00:21:44;22.63;;;10.23;;
37763;SDS011;23602;51.084;7.090;2023-02-01T00:24:10;30.30;;;12.40;;
37763;SDS011;23602;51.084;7.090;2023-02-01T00:26:41;25.17;;;9.90;;
37763;SDS011;23602;51.084;7.090;2023-02-01T00:29:12;25.15;;;10.32;;
37763;SDS011;23602;51.084;7.090;2023-02-01T00:31:40;24.35;;;9.43;;
37763;SDS011;23602;51.084;7.090;2023-02-01T00:34:05;24.25;;;8.65;;
37763;SDS011;23602;51.084;7.090;2023-02-01T00:36:31;22.02;;;9.23;;
37763;SDS011;23602;51.084;7.090;2023-02-01T00:38:56;29.70;;;10.77;;
37763;SDS011;23602;51.084;7.090;2023-02-01T00:41:22;28.27;;;9.68;;
37763;SDS011;23602;51.084;7.090;2023-02-01T00:43:48;24.30;;;10.50;;
37763;SDS011;23602;51.084;7.090;2023-02-01T00:46:15;20.63;;;9.38;;
37763;SDS011;23602;51.084;7.090;2023-02-01T00:48:42;22.63;;;9.30;;
37763;SDS011;23602;51.084;7.090;2023-02-01T00:51:12;20.88;;;10.02;;
37763;SDS011;23602;51.084;7.090;2023-02-01T00:53:41;24.42;;;10.35;;
37763;SDS011;23602;51.084;7.090;2023-02-01T00:56:07;28.17;;;8.90;;
37763;SDS011;23602;51.084;7.090;2023-02-01T00:58:33;26.00;;;8.68;;
37763;SDS011;23602;51.084;7.090;2023-02-01T01:01:03;20.00;;;7.97;;
37763;SDS011;23602;51.084;7.090;2023-02-01T01:03:31;31.30;;;8.50;;
37763;SDS011;23602;51.084;7.090;2023-02-01T01:08:24;27.17;;;7.45;;
37763;SDS011;23602;51.084;7.090;2023-02-01T01:10:49;23.63;;;6.93;;
37763;SDS011;23602;51.084;7.090;2023-02-01T01:13:14;23.80;;;8.80;;
37763;SDS011;23602;51.084;7.090;2023-02-01T01:15:40;20.80;;;6.40;;
37763;SDS011;23602;51.084;7.090;2023-02-01T01:18:06;24.67;;;6.75;;
37763;SDS011;23602;51.084;7.090;2023-02-01T01:20:36;21.33;;;6.60;;
37763;SDS011;23602;51.084;7.090;2023-02-01T01:23:04;23.35;;;6.93;;
37763;SDS011;23602;51.084;7.090;2023-02-01T01:25:30;22.17;;;6.95;;
37763;SDS011;23602;51.084;7.090;2023-02-01T01:27:56;19.40;;;6.25;;
37763;SDS011;23602;51.084;7.090;2023-02-01T01:30:21;16.33;;;5.82;;
37763;SDS011;23602;51.084;7.090;2023-02-01T01:32:47;23.88;;;5.32;;
37763;SDS011;23602;51.084;7.090;2023-02-01T01:35:13;20.80;;;5.38;;
37763;SDS011;23602;51.084;7.090;2023-02-01T01:37:38;18.30;;;5.35;;
37763;SDS011;23602;51.084;7.090;2023-02-01T01:40:07;20.17;;;5.80;;
37763;SDS011;23602;51.084;7.090;2023-02-01T01:45:07;15.98;;;4.25;;
37763;SDS011;23602;51.084;7.090;2023-02-01T01:47:50;16.80;;;4.65;;
37763;SDS011;23602;51.084;7.090;2023-02-01T01:50:20;34.85;;;6.97;;
37763;SDS011;23602;51.084;7.090;2023-02-01T01:52:48;16.65;;;3.78;;
37763;SDS011;23602;51.084;7.090;2023-02-01T01:55:17;21.98;;;5.13;;
37763;SDS011;23602;51.084;7.090;2023-02-01T01:57:46;15.65;;;4.20;;
37763;SDS011;23602;51.084;7.090;2023-02-01T02:00:27;23.35;;;5.03;;
37763;SDS011;23602;51.084;7.090;2023-02-01T02:02:54;18.73;;;4.93;;
37763;SDS011;23602;51.084;7.090;2023-02-01T02:05:24;15.82;;;4.30;;
37763;SDS011;23602;51.084;7.090;2023-02-01T02:07:50;12.55;;;4.25;;
37763;SDS011;23602;51.084;7.090;2023-02-01T02:10:18;13.68;;;4.45;;
37763;SDS011;23602;51.084;7.090;2023-02-01T02:12:44;21.05;;;4.13;;
37763;SDS011;23602;51.084;7.090;2023-02-01T02:15:13;11.85;;;3.78;;
37763;SDS011;23602;51.084;7.090;2023-02-01T02:23:23;13.02;;;3.83;;
37763;SDS011;23602;51.084;7.090;2023-02-01T02:28:55;18.13;;;3.88;;
37763;SDS011;23602;51.084;7.090;2023-02-01T02:39:56;8.90;;;2.80;;
37763;SDS011;23602;51.084;7.090;2023-02-01T02:42:38;18.95;;;3.90;;
37763;SDS011;23602;51.084;7.090;2023-02-01T02:45:25;17.85;;;5.13;;
37763;SDS011;23602;51.084;7.090;2023-02-01T02:56:48;16.02;;;3.70;;
37763;SDS011;23602;51.084;7.090;2023-02-01T02:59:33;17.27;;;3.88;;
37763;SDS011;23602;51.084;7.090;2023-02-01T03:02:18;19.55;;;4.80;;
37763;SDS011;23602;51.084;7.090;2023-02-01T03:05:04;13.80;;;3.53;;
37763;SDS011;23602;51.084;7.090;2023-02-01T03:13:14;18.83;;;3.47;;
37763;SDS011;23602;51.084;7.090;2023-02-01T03:18:56;20.25;;;4.30;;
37763;SDS011;23602;51.084;7.090;2023-02-01T03:21:29;15.70;;;3.47;;
37763;SDS011;23602;51.084;7.090;2023-02-01T03:24:02;20.63;;;3.70;;
37763;SDS011;23602;51.084;7.090;2023-02-01T03:26:43;18.20;;;4.95;;
37763;SDS011;23602;51.084;7.090;2023-02-01T03:29:14;23.00;;;5.03;;
37763;SDS011;23602;51.084;7.090;2023-02-01T03:31:43;11.30;;;3.50;;
37763;SDS011;23602;51.084;7.090;2023-02-01T03:34:10;20.23;;;4.70;;
37763;SDS011;23602;51.084;7.090;2023-02-01T03:36:39;23.17;;;4.90;;
37763;SDS011;23602;51.084;7.090;2023-02-01T03:39:22;19.35;;;4.88;;
37763;SDS011;23602;51.084;7.090;2023-02-01T03:41:55;14.88;;;4.35;;
37763;SDS011;23602;51.084;7.090;2023-02-01T03:44:31;16.42;;;3.88;;
37763;SDS011;23602;51.084;7.090;2023-02-01T03:47:14;17.07;;;4.87;;
37763;SDS011;23602;51.084;7.090;2023-02-01T03:49:46;23.90;;;4.25;;
37763;SDS011;23602;51.084;7.090;2023-02-01T03:52:18;22.85;;;4.90;;
37763;SDS011;23602;51.084;7.090;2023-02-01T03:54:47;16.63;;;4.15;;
37763;SDS011;23602;51.084;7.090;2023-02-01T03:57:16;15.38;;;5.10;;
37763;SDS011;23602;51.084;7.090;2023-02-01T03:59:45;19.20;;;4.40;;
37763;SDS011;23602;51.084;7.090;2023-02-01T04:02:11;22.48;;;5.07;;
37763;SDS011;23602;51.084;7.090;2023-02-01T04:04:36;17.83;;;4.68;;
37763;SDS011;23602;51.084;7.090;2023-02-01T04:07:02;34.10;;;6.55;;
37763;SDS011;23602;51.084;7.090;2023-02-01T04:09:27;18.00;;;3.95;;
37763;SDS011;23602;51.084;7.090;2023-02-01T04:11:53;19.52;;;4.45;;
37763;SDS011;23602;51.084;7.090;2023-02-01T04:14:19;18.75;;;4.55;;
37763;SDS011;23602;51.084;7.090;2023-02-01T04:16:44;20.05;;;3.88;;
37763;SDS011;23602;51.084;7.090;2023-02-01T04:19:10;19.55;;;4.10;;
37763;SDS011;23602;51.084;7.090;2023-02-01T04:21:36;17.67;;;4.82;;
37763;SDS011;23602;51.084;7.090;2023-02-01T04:24:02;14.68;;;4.38;;
37763;SDS011;23602;51.084;7.090;2023-02-01T04:26:28;16.80;;;4.32;;
37763;SDS011;23602;51.084;7.090;2023-02-01T04:28:53;15.90;;;4.57;;
37763;SDS011;23602;51.084;7.090;2023-02-01T04:31:19;23.73;;;4.63;;
37763;SDS011;23602;51.084;7.090;2023-02-01T04:33:51;21.15;;;4.85;;
37763;SDS011;23602;51.084;7.090;2023-02-01T04:36:18;18.70;;;4.05;;
37763;SDS011;23602;51.084;7.090;2023-02-01T04:38:49;17.20;;;4.68;;
37763;SDS011;23602;51.084;7.090;2023-02-01T04:41:15;27.33;;;5.30;;
37763;SDS011;23602;51.084;7.090;2023-02-01T04:43:48;18.33;;;3.70;;
37763;SDS011;23602;51.084;7.090;2023-02-01T04:46:15;17.65;;;3.70;;
37763;SDS011;23602;51.084;7.090;2023-02-01T04:48:41;23.95;;;6.65;;
37763;SDS011;23602;51.084;7.090;2023-02-01T04:51:07;15.82;;;4.22;;
37763;SDS011;23602;51.084;7.090;2023-02-01T04:53:32;20.77;;;4.72;;
37763;SDS011;23602;51.084;7.090;2023-02-01T04:56:01;14.40;;;3.53;;
37763;SDS011;23602;51.084;7.090;2023-02-01T04:58:26;27.85;;;5.97;;
37763;SDS011;23602;51.084;7.090;2023-02-01T05:00:52;16.33;;;4.05;;
37763;SDS011;23602;51.084;7.090;2023-02-01T05:03:18;18.80;;;4.43;;
37763;SDS011;23602;51.084;7.090;2023-02-01T05:05:43;19.55;;;4.55;;
37763;SDS011;23602;51.084;7.090;2023-02-01T05:08:09;20.13;;;4.95;;
37763;SDS011;23602;51.084;7.090;2023-02-01T05:10:34;17.90;;;3.75;;
37763;SDS011;23602;51.084;7.090;2023-02-01T05:13:00;15.57;;;3.80;;
37763;SDS011;23602;51.084;7.090;2023-02-01T05:15:44;17.63;;;4.88;;
37763;SDS011;23602;51.084;7.090;2023-02-01T05:18:11;18.02;;;4.18;;
37763;SDS011;23602;51.084;7.090;2023-02-01T05:20:36;29.88;;;7.25;;
37763;SDS011;23602;51.084;7.090;2023-02-01T05:23:02;18.33;;;4.85;;
37763;SDS011;23602;51.084;7.090;2023-02-01T05:25:29;15.27;;;3.95;;
37763;SDS011;23602;51.084;7.090;2023-02-01T05:27:55;16.95;;;3.95;;
37763;SDS011;23602;51.084;7.090;2023-02-01T05:30:21;21.88;;;4.22;;
37763;SDS011;23602;51.084;7.090;2023-02-01T05:32:49;15.10;;;3.63;;
37763;SDS011;23602;51.084;7.090;2023-02-01T05:35:15;13.98;;;3.67;;
37763;SDS011;23602;51.084;7.090;2023-02-01T05:37:41;17.67;;;4.70;;
37763;SDS011;23602;51.084;7.090;2023-02-01T05:40:06;14.15;;;4.65;;
37763;SDS011;23602;51.084;7.090;2023-02-01T05:42:33;22.42;;;3.58;;
37763;SDS011;23602;51.084;7.090;2023-02-01T05:44:58;19.35;;;3.67;;
37763;SDS011;23602;51.084;7.090;2023-02-01T05:47:24;21.25;;;4.15;;
37763;SDS011;23602;51.084;7.090;2023-02-01T05:49:49;24.40;;;4.25;;
37763;SDS011;23602;51.084;7.090;2023-02-01T05:52:15;23.83;;;3.53;;
37763;SDS011;23602;51.084;7.090;2023-02-01T05:54:44;17.38;;;4.28;;
37763;SDS011;23602;51.084;7.090;2023-02-01T05:57:13;16.40;;;3.38;;
37763;SDS011;23602;51.084;7.090;2023-02-01T05:59:42;25.70;;;5.30;;
37763;SDS011;23602;51.084;7.090;2023-02-01T06:02:10;19.77;;;4.10;;
37763;SDS011;23602;51.084;7.090;2023-02-01T06:04:36;13.73;;;3.00;;
37763;SDS011;23602;51.084;7.090;2023-02-01T06:07:09;23.10;;;4.32;;
37763;SDS011;23602;51.084;7.090;2023-02-01T06:09:35;15.20;;;2.75;;
37763;SDS011;23602;51.084;7.090;2023-02-01T06:12:01;19.33;;;3.65;;
37763;SDS011;23602;51.084;7.090;2023-02-01T06:14:28;14.25;;;2.60;;
37763;SDS011;23602;51.084;7.090;2023-02-01T06:16:54;19.58;;;3.85;;
37763;SDS011;23602;51.084;7.090;2023-02-01T06:19:20;16.95;;;4.65;;
37763;SDS011;23602;51.084;7.090;2023-02-01T06:21:46;14.07;;;3.30;;
37763;SDS011;23602;51.084;7.090;2023-02-01T06:24:11;14.25;;;3.85;;
37763;SDS011;23602;51.084;7.090;2023-02-01T06:26:37;21.77;;;4.00;;
37763;SDS011;23602;51.084;7.090;2023-02-01T06:29:12;15.98;;;3.60;;
37763;SDS011;23602;51.084;7.090;2023-02-01T06:31:37;15.60;;;3.92;;
37763;SDS011;23602;51.084;7.090;2023-02-01T06:34:03;27.67;;;4.45;;
37763;SDS011;23602;51.084;7.090;2023-02-01T06:36:29;18.73;;;4.15;;
37763;SDS011;23602;51.084;7.090;2023-02-01T06:38:55;20.25;;;5.20;;
37763;SDS011;23602;51.084;7.090;2023-02-01T06:41:21;25.33;;;4.20;;
37763;SDS011;23602;51.084;7.090;2023-02-01T06:43:50;29.55;;;4.07;;
37763;SDS011;23602;51.084;7.090;2023-02-01T06:46:15;20.95;;;3.25;;
37763;SDS011;23602;51.084;7.090;2023-02-01T06:48:40;27.02;;;6.22;;
37763;SDS011;23602;51.084;7.090;2023-02-01T06:51:12;20.85;;;3.38;;
37763;SDS011;23602;51.084;7.090;2023-02-01T06:53:43;16.92;;;3.35;;
37763;SDS011;23602;51.084;7.090;2023-02-01T06:56:09;14.95;;;3.25;;
37763;SDS011;23602;51.084;7.090;2023-02-01T06:58:34;23.90;;;4.05;;
37763;SDS011;23602;51.084;7.090;2023-02-01T07:01:06;19.25;;;5.85;;
37763;SDS011;23602;51.084;7.090;2023-02-01T07:03:32;23.58;;;5.97;;
37763;SDS011;23602;51.084;7.090;2023-02-01T07:05:58;18.95;;;3.83;;
37763;SDS011;23602;51.084;7.090;2023-02-01T07:08:24;17.63;;;3.65;;
37763;SDS011;23602;51.084;7.090;2023-02-01T07:13:16;13.25;;;3.53;;
37763;SDS011;23602;51.084;7.090;2023-02-01T07:15:42;27.73;;;5.43;;
37763;SDS011;23602;51.084;7.090;2023-02-01T07:18:07;15.00;;;4.57;;
37763;SDS011;23602;51.084;7.090;2023-02-01T07:20:33;15.68;;;4.60;;
37763;SDS011;23602;51.084;7.090;2023-02-01T07:22:58;13.88;;;3.53;;
37763;SDS011;23602;51.084;7.090;2023-02-01T07:25:24;29.27;;;4.43;;
37763;SDS011;23602;51.084;7.090;2023-02-01T07:27:49;19.10;;;4.13;;
37763;SDS011;23602;51.084;7.090;2023-02-01T07:30:15;14.73;;;3.72;;
37763;SDS011;23602;51.084;7.090;2023-02-01T07:32:40;17.67;;;4.15;;
37763;SDS011;23602;51.084;7.090;2023-02-01T07:35:06;16.83;;;3.85;;
37763;SDS011;23602;51.084;7.090;2023-02-01T07:37:31;27.13;;;4.63;;
37763;SDS011;23602;51.084;7.090;2023-02-01T07:39:57;23.75;;;4.88;;
37763;SDS011;23602;51.084;7.090;2023-02-01T07:42:23;20.30;;;4.00;;
37763;SDS011;23602;51.084;7.090;2023-02-01T07:44:48;23.98;;;4.03;;
37763;SDS011;23602;51.084;7.090;2023-02-01T07:47:14;19.15;;;4.05;;
37763;SDS011;23602;51.084;7.090;2023-02-01T07:49:39;17.17;;;2.95;;
37763;SDS011;23602;51.084;7.090;2023-02-01T07:52:05;20.05;;;4.43;;
37763;SDS011;23602;51.084;7.090;2023-02-01T07:54:30;17.23;;;4.20;;
37763;SDS011;23602;51.084;7.090;2023-02-01T07:56:56;20.88;;;4.10;;
37763;SDS011;23602;51.084;7.090;2023-02-01T07:59:22;26.13;;;4.30;;
37763;SDS011;23602;51.084;7.090;2023-02-01T08:01:47;14.85;;;3.97;;
37763;SDS011;23602;51.084;7.090;2023-02-01T08:04:13;16.77;;;3.58;;
37763;SDS011;23602;51.084;7.090;2023-02-01T08:06:39;19.65;;;4.80;;
37763;SDS011;23602;51.084;7.090;2023-02-01T08:09:05;13.45;;;3.60;;
37763;SDS011;23602;51.084;7.090;2023-02-01T08:13:58;18.95;;;4.05;;
37763;SDS011;23602;51.084;7.090;2023-02-01T08:16:23;37.85;;;5.60;;
37763;SDS011;23602;51.084;7.090;2023-02-01T08:18:49;22.25;;;5.28;;
37763;SDS011;23602;51.084;7.090;2023-02-01T08:21:20;18.13;;;4.05;;
37763;SDS011;23602;51.084;7.090;2023-02-01T08:23:48;19.42;;;3.30;;
37763;SDS011;23602;51.084;7.090;2023-02-01T08:26:18;23.70;;;4.18;;
37763;SDS011;23602;51.084;7.090;2023-02-01T08:28:46;22.10;;;6.80;;
37763;SDS011;23602;51.084;7.090;2023-02-01T08:31:17;19.80;;;3.40;;
37763;SDS011;23602;51.084;7.090;2023-02-01T08:33:50;15.32;;;4.43;;
37763;SDS011;23602;51.084;7.090;2023-02-01T08:36:20;26.33;;;4.15;;
37763;SDS011;23602;51.084;7.090;2023-02-01T08:38:46;21.33;;;3.47;;
37763;SDS011;23602;51.084;7.090;2023-02-01T08:41:13;13.77;;;3.13;;
37763;SDS011;23602;51.084;7.090;2023-02-01T08:43:41;21.23;;;4.55;;
37763;SDS011;23602;51.084;7.090;2023-02-01T08:46:07;20.63;;;4.35;;
37763;SDS011;23602;51.084;7.090;2023-02-01T08:48:33;13.13;;;2.80;;
37763;SDS011;23602;51.084;7.090;2023-02-01T08:51:04;19.30;;;4.00;;
37763;SDS011;23602;51.084;7.090;2023-02-01T08:53:30;24.02;;;4.15;;
37763;SDS011;23602;51.084;7.090;2023-02-01T08:55:57;20.70;;;6.72;;
37763;SDS011;23602;51.084;7.090;2023-02-01T08:58:25;20.67;;;4.40;;
37763;SDS011;23602;51.084;7.090;2023-02-01T09:00:51;20.60;;;5.03;;
37763;SDS011;23602;51.084;7.090;2023-02-01T09:03:17;21.92;;;3.92;;
37763;SDS011;23602;51.084;7.090;2023-02-01T09:05:43;20.27;;;3.42;;
37763;SDS011;23602;51.084;7.090;2023-02-01T09:08:10;19.75;;;5.03;;
37763;SDS011;23602;51.084;7.090;2023-02-01T09:10:39;27.70;;;5.53;;
37763;SDS011;23602;51.084;7.090;2023-02-01T09:13:07;16.23;;;3.80;;
37763;SDS011;23602;51.084;7.090;2023-02-01T09:15:36;14.73;;;3.47;;
37763;SDS011;23602;51.084;7.090;2023-02-01T09:18:02;26.67;;;4.55;;
37763;SDS011;23602;51.084;7.090;2023-02-01T09:20:28;15.85;;;3.85;;
37763;SDS011;23602;51.084;7.090;2023-02-01T09:22:54;26.45;;;6.38;;
37763;SDS011;23602;51.084;7.090;2023-02-01T09:25:23;16.10;;;4.05;;
37763;SDS011;23602;51.084;7.090;2023-02-01T09:27:48;17.08;;;4.25;;
37763;SDS011;23602;51.084;7.090;2023-02-01T09:30:14;21.63;;;4.30;;
37763;SDS011;23602;51.084;7.090;2023-02-01T09:32:39;17.85;;;4.00;;
37763;SDS011;23602;51.084;7.090;2023-02-01T09:35:05;22.02;;;4.22;;
37763;SDS011;23602;51.084;7.090;2023-02-01T09:37:30;16.35;;;3.92;;
37763;SDS011;23602;51.084;7.090;2023-02-01T09:39:56;17.98;;;3.60;;
37763;SDS011;23602;51.084;7.090;2023-02-01T09:45:07;22.83;;;4.65;;
37763;SDS011;23602;51.084;7.090;2023-02-01T09:47:35;17.25;;;4.15;;
37763;SDS011;23602;51.084;7.090;2023-02-01T09:50:15;22.92;;;4.57;;
37763;SDS011;23602;51.084;7.090;2023-02-01T09:52:55;30.75;;;4.30;;
37763;SDS011;23602;51.084;7.090;2023-02-01T09:55:41;19.65;;;4.30;;
37763;SDS011;23602;51.084;7.090;2023-02-01T10:01:20;20.20;;;4.30;;
37763;SDS011;23602;51.084;7.090;2023-02-01T10:03:47;24.55;;;4.80;;
37763;SDS011;23602;51.084;7.090;2023-02-01T10:06:35;14.57;;;3.83;;
37763;SDS011;23602;51.084;7.090;2023-02-01T10:09:06;16.88;;;3.17;;
37763;SDS011;23602;51.084;7.090;2023-02-01T10:19:45;18.15;;;4.15;;
37763;SDS011;23602;51.084;7.090;2023-02-01T10:25:23;18.10;;;4.50;;
37763;SDS011;23602;51.084;7.090;2023-02-01T10:27:57;24.17;;;4.75;;
37763;SDS011;23602;51.084;7.090;2023-02-01T10:30:27;28.48;;;5.43;;
37763;SDS011;23602;51.084;7.090;2023-02-01T10:32:56;22.02;;;4.45;;
37763;SDS011;23602;51.084;7.090;2023-02-01T10:35:34;16.90;;;4.68;;
37763;SDS011;23602;51.084;7.090;2023-02-01T10:38:03;16.45;;;3.75;;
37763;SDS011;23602;51.084;7.090;2023-02-01T10:40:37;22.95;;;4.80;;
37763;SDS011;23602;51.084;7.090;2023-02-01T10:43:02;17.58;;;5.63;;
37763;SDS011;23602;51.084;7.090;2023-02-01T10:45:29;20.13;;;5.20;;
37763;SDS011;23602;51.084;7.090;2023-02-01T10:47:57;18.58;;;4.63;;
37763;SDS011;23602;51.084;7.090;2023-02-01T10:53:05;22.30;;;5.35;;
37763;SDS011;23602;51.084;7.090;2023-02-01T10:58:18;16.83;;;4.00;;
37763;SDS011;23602;51.084;7.090;2023-02-01T11:00:47;26.25;;;4.20;;
37763;SDS011;23602;51.084;7.090;2023-02-01T11:06:09;20.58;;;4.93;;
37763;SDS011;23602;51.084;7.090;2023-02-01T11:08:51;15.55;;;3.85;;
37763;SDS011;23602;51.084;7.090;2023-02-01T11:11:57;19.80;;;4.40;;
37763;SDS011;23602;51.084;7.090;2023-02-01T11:14:34;28.92;;;7.00;;
37763;SDS011;23602;51.084;7.090;2023-02-01T11:19:43;19.42;;;3.70;;
37763;SDS011;23602;51.084;7.090;2023-02-01T11:22:10;15.40;;;4.05;;
37763;SDS011;23602;51.084;7.090;2023-02-01T11:27:06;15.77;;;3.67;;
37763;SDS011;23602;51.084;7.090;2023-02-01T11:29:41;20.88;;;4.22;;
37763;SDS011;23602;51.084;7.090;2023-02-01T11:32:13;15.23;;;3.85;;
37763;SDS011;23602;51.084;7.090;2023-02-01T11:34:51;19.77;;;4.25;;
37763;SDS011;23602;51.084;7.090;2023-02-01T11:37:29;13.20;;;3.92;;
37763;SDS011;23602;51.084;7.090;2023-02-01T11:40:00;19.38;;;4.13;;
37763;SDS011;23602;51.084;7.090;2023-02-01T11:42:59;18.52;;;4.35;;
37763;SDS011;23602;51.084;7.090;2023-02-01T11:45:28;19.63;;;5.03;;
37763;SDS011;23602;51.084;7.090;2023-02-01T11:47:56;17.05;;;4.00;;
37763;SDS011;23602;51.084;7.090;2023-02-01T11:53:33;18.48;;;3.83;;
37763;SDS011;23602;51.084;7.090;2023-02-01T11:56:16;15.20;;;3.95;;
37763;SDS011;23602;51.084;7.090;2023-02-01T11:59:04;17.88;;;3.92;;
37763;SDS011;23602;51.084;7.090;2023-02-01T12:07:14;20.02;;;4.80;;
37763;SDS011;23602;51.084;7.090;2023-02-01T12:32:01;20.25;;;3.50;;
37763;SDS011;23602;51.084;7.090;2023-02-01T12:35:28;22.35;;;3.70;;
37763;SDS011;23602;51.084;7.090;2023-02-01T12:40:48;25.80;;;4.03;;
37763;SDS011;23602;51.084;7.090;2023-02-01T12:43:46;20.60;;;4.38;;
37763;SDS011;23602;51.084;7.090;2023-02-01T12:46:27;16.20;;;3.55;;
37763;SDS011;23602;51.084;7.090;2023-02-01T12:49:05;15.50;;;3.97;;
37763;SDS011;23602;51.084;7.090;2023-02-01T12:51:37;18.83;;;4.57;;
37763;SDS011;23602;51.084;7.090;2023-02-01T12:54:21;15.65;;;3.38;;
37763;SDS011;23602;51.084;7.090;2023-02-01T12:56:57;12.85;;;3.10;;
37763;SDS011;23602;51.084;7.090;2023-02-01T13:02:26;18.25;;;4.55;;
37763;SDS011;23602;51.084;7.090;2023-02-01T13:07:50;20.30;;;4.13;;
37763;SDS011;23602;51.084;7.090;2023-02-01T13:10:24;14.63;;;4.07;;
37763;SDS011;23602;51.084;7.090;2023-02-01T13:13:14;15.85;;;3.35;;
37763;SDS011;23602;51.084;7.090;2023-02-01T13:15:48;21.05;;;6.38;;
37763;SDS011;23602;51.084;7.090;2023-02-01T13:18:20;12.82;;;3.33;;
37763;SDS011;23602;51.084;7.090;2023-02-01T13:21:14;17.05;;;4.90;;
37763;SDS011;23602;51.084;7.090;2023-02-01T13:23:47;16.27;;;3.13;;
37763;SDS011;23602;51.084;7.090;2023-02-01T13:26:13;13.32;;;3.95;;
37763;SDS011;23602;51.084;7.090;2023-02-01T13:45:00;21.55;;;4.88;;
37763;SDS011;23602;51.084;7.090;2023-02-01T13:47:31;16.25;;;2.92;;
37763;SDS011;23602;51.084;7.090;2023-02-01T13:52:59;17.92;;;3.30;;
37763;SDS011;23602;51.084;7.090;2023-02-01T13:55:31;19.08;;;3.03;;
37763;SDS011;23602;51.084;7.090;2023-02-01T13:58:10;16.98;;;3.88;;
37763;SDS011;23602;51.084;7.090;2023-02-01T14:00:41;15.52;;;3.45;;
37763;SDS011;23602;51.084;7.090;2023-02-01T14:13:26;15.02;;;3.40;;
37763;SDS011;23602;51.084;7.090;2023-02-01T14:23:57;13.70;;;3.42;;
37763;SDS011;23602;51.084;7.090;2023-02-01T14:29:01;16.83;;;3.30;;
37763;SDS011;23602;51.084;7.090;2023-02-01T14:31:51;11.43;;;3.20;;
37763;SDS011;23602;51.084;7.090;2023-02-01T14:40:01;12.73;;;2.78;;
37763;SDS011;23602;51.084;7.090;2023-02-01T15:06:36;16.60;;;3.42;;
37763;SDS011;23602;51.084;7.090;2023-02-01T15:12:03;17.33;;;2.80;;
37763;SDS011;23602;51.084;7.090;2023-02-01T15:14:35;19.95;;;3.85;;
37763;SDS011;23602;51.084;7.090;2023-02-01T15:17:03;13.93;;;2.55;;
37763;SDS011;23602;51.084;7.090;2023-02-01T15:19:52;16.35;;;3.40;;
37763;SDS011;23602;51.084;7.090;2023-02-01T15:22:19;22.10;;;3.65;;
37763;SDS011;23602;51.084;7.090;2023-02-01T15:24:51;17.85;;;2.60;;
37763;SDS011;23602;51.084;7.090;2023-02-01T15:27:21;20.00;;;3.55;;
37763;SDS011;23602;51.084;7.090;2023-02-01T15:29:47;16.23;;;4.18;;
37763;SDS011;23602;51.084;7.090;2023-02-01T15:32:28;9.73;;;2.42;;
37763;SDS011;23602;51.084;7.090;2023-02-01T15:34:54;12.43;;;2.60;;
37763;SDS011;23602;51.084;7.090;2023-02-01T15:37:20;13.73;;;2.97;;
37763;SDS011;23602;51.084;7.090;2023-02-01T15:40:03;17.23;;;5.25;;
37763;SDS011;23602;51.084;7.090;2023-02-01T15:42:35;13.20;;;3.08;;
37763;SDS011;23602;51.084;7.090;2023-02-01T15:45:19;18.63;;;4.50;;
37763;SDS011;23602;51.084;7.090;2023-02-01T15:47:47;16.10;;;2.40;;
37763;SDS011;23602;51.084;7.090;2023-02-01T15:50:20;12.18;;;2.78;;
37763;SDS011;23602;51.084;7.090;2023-02-01T15:52:48;16.42;;;3.33;;
37763;SDS011;23602;51.084;7.090;2023-02-01T15:55:18;13.10;;;2.65;;
37763;SDS011;23602;51.084;7.090;2023-02-01T15:57:47;17.85;;;3.75;;
37763;SDS011;23602;51.084;7.090;2023-02-01T16:00:23;11.88;;;2.55;;
37763;SDS011;23602;51.084;7.090;2023-02-01T16:02:55;15.70;;;2.80;;
37763;SDS011;23602;51.084;7.090;2023-02-01T16:08:10;11.02;;;2.40;;
37763;SDS011;23602;51.084;7.090;2023-02-01T16:10:39;14.48;;;2.88;;
37763;SDS011;23602;51.084;7.090;2023-02-01T16:13:06;18.95;;;3.45;;
37763;SDS011;23602;51.084;7.090;2023-02-01T16:15:32;12.63;;;2.85;;
37763;SDS011;23602;51.084;7.090;2023-02-01T16:17:57;16.42;;;2.85;;
37763;SDS011;23602;51.084;7.090;2023-02-01T16:20:23;18.27;;;3.03;;
37763;SDS011;23602;51.084;7.090;2023-02-01T16:22:51;9.60;;;2.22;;
37763;SDS011;23602;51.084;7.090;2023-02-01T16:25:17;18.08;;;2.55;;
37763;SDS011;23602;51.084;7.090;2023-02-01T16:27:46;9.80;;;2.70;;
37763;SDS011;23602;51.084;7.090;2023-02-01T16:30:12;15.10;;;3.83;;
37763;SDS011;23602;51.084;7.090;2023-02-01T16:32:38;17.25;;;3.63;;
37763;SDS011;23602;51.084;7.090;2023-02-01T16:35:04;13.10;;;3.22;;
37763;SDS011;23602;51.084;7.090;2023-02-01T16:37:38;10.23;;;2.50;;
37763;SDS011;23602;51.084;7.090;2023-02-01T16:40:04;13.90;;;3.40;;
37763;SDS011;23602;51.084;7.090;2023-02-01T16:42:29;15.73;;;2.70;;
37763;SDS011;23602;51.084;7.090;2023-02-01T16:44:55;19.25;;;4.22;;
37763;SDS011;23602;51.084;7.090;2023-02-01T16:47:21;19.05;;;2.63;;
37763;SDS011;23602;51.084;7.090;2023-02-01T16:49:48;11.15;;;2.50;;
37763;SDS011;23602;51.084;7.090;2023-02-01T16:52:16;13.95;;;2.92;;
37763;SDS011;23602;51.084;7.090;2023-02-01T16:54:44;17.13;;;2.92;;
37763;SDS011;23602;51.084;7.090;2023-02-01T16:57:20;12.48;;;2.83;;
37763;SDS011;23602;51.084;7.090;2023-02-01T16:59:48;12.57;;;3.10;;
37763;SDS011;23602;51.084;7.090;2023-02-01T17:02:18;16.92;;;3.55;;
37763;SDS011;23602;51.084;7.090;2023-02-01T17:04:46;14.10;;;2.95;;
37763;SDS011;23602;51.084;7.090;2023-02-01T17:07:16;18.92;;;2.95;;
37763;SDS011;23602;51.084;7.090;2023-02-01T17:09:45;13.13;;;2.80;;
37763;SDS011;23602;51.084;7.090;2023-02-01T17:12:24;19.20;;;3.45;;
37763;SDS011;23602;51.084;7.090;2023-02-01T17:14:52;13.25;;;2.70;;
37763;SDS011;23602;51.084;7.090;2023-02-01T17:17:17;15.80;;;3.08;;
37763;SDS011;23602;51.084;7.090;2023-02-01T17:19:53;17.52;;;3.15;;
37763;SDS011;23602;51.084;7.090;2023-02-01T17:22:19;14.98;;;2.88;;
37763;SDS011;23602;51.084;7.090;2023-02-01T17:24:49;12.00;;;2.88;;
37763;SDS011;23602;51.084;7.090;2023-02-01T17:27:21;15.48;;;2.95;;
37763;SDS011;23602;51.084;7.090;2023-02-01T17:29:46;19.00;;;3.20;;
37763;SDS011;23602;51.084;7.090;2023-02-01T17:32:22;12.90;;;3.03;;
37763;SDS011;23602;51.084;7.090;2023-02-01T17:37:58;15.82;;;3.80;;
37763;SDS011;23602;51.084;7.090;2023-02-01T17:40:25;13.07;;;3.03;;
37763;SDS011;23602;51.084;7.090;2023-02-01T17:42:52;16.92;;;3.15;;
37763;SDS011;23602;51.084;7.090;2023-02-01T17:48:30;16.92;;;3.03;;
37763;SDS011;23602;51.084;7.090;2023-02-01T17:50:56;17.05;;;3.53;;
37763;SDS011;23602;51.084;7.090;2023-02-01T17:53:25;12.20;;;2.78;;
37763;SDS011;23602;51.084;7.090;2023-02-01T17:56:01;20.55;;;3.03;;
37763;SDS011;23602;51.084;7.090;2023-02-01T17:58:26;14.57;;;3.63;;
37763;SDS011;23602;51.084;7.090;2023-02-01T18:00:54;12.70;;;3.47;;
37763;SDS011;23602;51.084;7.090;2023-02-01T18:03:21;15.60;;;3.10;;
37763;SDS011;23602;51.084;7.090;2023-02-01T18:05:50;17.10;;;3.58;;